In Rescue
 
Open Full Screen Window  High Contrast Mode
December 04, 2021 2:30 PM PST
Present Weather: Haze
Weather Information
Wind Direction
  ---
Wind Speed
  00 kt (0 mph)
Wind Gust
  00 kt (0 mph)
Altimeter
30.20 in
Visibility
4 SM
Temperature
13° C
55° F
Dewpoint
08° C
46° F
Humidity
72%
1hr Rain Fall
00.00 in.
24hr Rain Fall
00.00 in.
Sky Condition
Few @ 1,600 ft
MVFR

METAR KCVH 042230Z AUTO 00000KT 4SM HZ FEW016 13/08 A3020 RMK A01

FAA Disclaimer: The data displayed is for advisory purposes only and is not to be used for flight planning or operations.